CheckWX is a tool to help pilots better visualize weather data.  It is not intended as a substitute for an official pre-flight weather briefing.

07:27:18 UTC

KBUR TAF
Bob Hope Airport
Burbank, California, USA
KBUR 051135Z 0512/0612 18006KT P6SM BKN022 OVC029 FM052200 17010KT P6SM VCSH BKN025 OVC035 FM060400 17012G20KT 4SM -RA BR BKN015 OVC025 FM060900 15015G25KT 2SM RA BR BKN015 OVC025

Apr-5@
12:00 UTC

Apr-5 @ 12:00 UTC

Apr-5@
22:00 UTC

Apr-5 @ 22:00 UTC

TAF KBUR 051135Z 0512/0612 18006KT P6SM BKN022 OVC029

Expired

Wind
  • 180° at 6 KTS
Cloud Levels
  • Broken at 2,200' AGL
  • Overcast at 2,900' AGL

Apr-5@
22:00 UTC

Apr-5 @ 22:00 UTC

Apr-6@
04:00 UTC

Apr-6 @ 04:00 UTC

FM052200 17010KT P6SM VCSH BKN025 OVC035

Expired

Wind
  • 170° at 10 KTS
Conditions
Area Showers
Cloud Levels
  • Broken at 2,500' AGL
  • Overcast at 3,500' AGL

Apr-6@
04:00 UTC

Apr-6 @ 04:00 UTC

Apr-6@
09:00 UTC

Apr-6 @ 09:00 UTC

FM060400 17012G20KT 4SM -RA BR BKN015 OVC025

From

From Standard forecast or significant change

Wind
  • 170° at 12 KTS
  • {Gusting to 20 KTS
Conditions
Light Rain, Mist
Cloud Levels
  • Broken at 1,500' AGL
  • Overcast at 2,500' AGL

Apr-6@
09:00 UTC

Apr-6 @ 09:00 UTC

Apr-6@
12:00 UTC

Apr-6 @ 12:00 UTC

FM060900 15015G25KT 2SM RA BR BKN015 OVC025

From

From Standard forecast or significant change

Wind
  • 150° at 15 KTS
  • {Gusting to 25 KTS
Conditions
Rain, Mist
Cloud Levels
  • Broken at 1,500' AGL
  • Overcast at 2,500' AGL